Terminal Aerodrome Forecast
Issued by NWS Charleston, WV

Current Version | Previous Version | Text Only | Print | Product List | Glossary Off
Versions: 1 2 3 4 5 6 7 8 9 10 11 12 13 14 15 16 17 18 19 20 21 22 23 24 25 26 27

185
FTUS41 KRLX 270543 RRA
TAFEKN
TAF
KEKN 270543Z 2706/2806 00000KT 3SM BR OVC004
     FM270900 00000KT 1/4SM FG OVC001
     FM271200 00000KT 2SM BR BKN002 BKN015
     FM271300 00000KT P6SM BKN060=

USA.gov is the U.S. government's official web portal to all federal, state and local government web resources and services.